sensor_id;sensor_type;location;lat;lon;timestamp;P1;durP1;ratioP1;P2;durP2;ratioP2
73434;SDS011;61648;52.094;5.054;2022-07-29T04:45:32;2.00;;;1.00;;
73434;SDS011;61648;52.094;5.054;2022-07-29T04:47:58;2.38;;;0.90;;
73434;SDS011;61648;52.094;5.054;2022-07-29T04:50:24;3.22;;;0.80;;
73434;SDS011;61648;52.094;5.054;2022-07-29T04:52:50;2.22;;;1.20;;
73434;SDS011;61648;52.094;5.054;2022-07-29T04:55:16;4.15;;;1.10;;
73434;SDS011;61648;52.094;5.054;2022-07-29T04:57:42;2.05;;;0.95;;
73434;SDS011;61648;52.094;5.054;2022-07-29T05:00:08;3.10;;;1.10;;
73434;SDS011;61648;52.094;5.054;2022-07-29T05:02:35;3.03;;;1.02;;
73434;SDS011;61648;52.094;5.054;2022-07-29T05:05:00;3.25;;;1.10;;
73434;SDS011;61648;52.094;5.054;2022-07-29T05:07:26;2.72;;;1.10;;
73434;SDS011;61648;52.094;5.054;2022-07-29T05:09:52;1.52;;;0.85;;
73434;SDS011;61648;52.094;5.054;2022-07-29T05:14:47;2.53;;;1.00;;
73434;SDS011;61648;52.094;5.054;2022-07-29T05:17:13;4.18;;;1.17;;
73434;SDS011;61648;52.094;5.054;2022-07-29T05:19:39;3.08;;;1.02;;
73434;SDS011;61648;52.094;5.054;2022-07-29T05:22:05;2.65;;;0.95;;
73434;SDS011;61648;52.094;5.054;2022-07-29T05:24:31;4.28;;;1.23;;
73434;SDS011;61648;52.094;5.054;2022-07-29T05:26:57;3.90;;;1.08;;
73434;SDS011;61648;52.094;5.054;2022-07-29T05:29:23;2.08;;;1.15;;
73434;SDS011;61648;52.094;5.054;2022-07-29T05:31:49;3.40;;;1.30;;
73434;SDS011;61648;52.094;5.054;2022-07-29T05:34:17;3.55;;;1.00;;
73434;SDS011;61648;52.094;5.054;2022-07-29T05:36:43;3.35;;;0.95;;
73434;SDS011;61648;52.094;5.054;2022-07-29T05:39:10;1.70;;;1.00;;
73434;SDS011;61648;52.094;5.054;2022-07-29T05:41:36;4.53;;;1.25;;
73434;SDS011;61648;52.094;5.054;2022-07-29T05:44:02;3.10;;;1.10;;
73434;SDS011;61648;52.094;5.054;2022-07-29T05:46:28;3.58;;;1.20;;
73434;SDS011;61648;52.094;5.054;2022-07-29T05:48:54;1.95;;;0.85;;
73434;SDS011;61648;52.094;5.054;2022-07-29T05:51:20;3.00;;;1.20;;
73434;SDS011;61648;52.094;5.054;2022-07-29T05:53:46;4.13;;;1.20;;
73434;SDS011;61648;52.094;5.054;2022-07-29T05:56:12;3.00;;;1.10;;
73434;SDS011;61648;52.094;5.054;2022-07-29T05:58:38;3.00;;;1.10;;
73434;SDS011;61648;52.094;5.054;2022-07-29T06:01:04;2.58;;;1.52;;
73434;SDS011;61648;52.094;5.054;2022-07-29T06:03:30;2.50;;;1.02;;
73434;SDS011;61648;52.094;5.054;2022-07-29T06:05:56;3.15;;;1.20;;
73434;SDS011;61648;52.094;5.054;2022-07-29T06:08:22;3.70;;;1.10;;
73434;SDS011;61648;52.094;5.054;2022-07-29T06:10:48;2.90;;;1.05;;
73434;SDS011;61648;52.094;5.054;2022-07-29T06:13:14;3.30;;;1.13;;
73434;SDS011;61648;52.094;5.054;2022-07-29T06:15:40;2.28;;;1.10;;
73434;SDS011;61648;52.094;5.054;2022-07-29T06:18:07;4.70;;;1.25;;
73434;SDS011;61648;52.094;5.054;2022-07-29T06:20:34;1.85;;;1.00;;
73434;SDS011;61648;52.094;5.054;2022-07-29T06:23:00;2.20;;;1.10;;
73434;SDS011;61648;52.094;5.054;2022-07-29T06:25:29;2.50;;;1.13;;
73434;SDS011;61648;52.094;5.054;2022-07-29T06:27:55;3.55;;;1.67;;
73434;SDS011;61648;52.094;5.054;2022-07-29T06:30:21;2.45;;;0.98;;
73434;SDS011;61648;52.094;5.054;2022-07-29T06:32:47;2.08;;;1.00;;
73434;SDS011;61648;52.094;5.054;2022-07-29T06:35:14;3.72;;;1.27;;
73434;SDS011;61648;52.094;5.054;2022-07-29T06:37:40;2.67;;;1.35;;
73434;SDS011;61648;52.094;5.054;2022-07-29T06:40:06;2.90;;;1.10;;
73434;SDS011;61648;52.094;5.054;2022-07-29T06:42:50;1.70;;;0.80;;
73434;SDS011;61648;52.094;5.054;2022-07-29T06:45:16;2.15;;;1.10;;
73434;SDS011;61648;52.094;5.054;2022-07-29T06:47:42;3.03;;;0.98;;
73434;SDS011;61648;52.094;5.054;2022-07-29T06:50:08;3.50;;;1.27;;
73434;SDS011;61648;52.094;5.054;2022-07-29T06:52:37;4.15;;;1.30;;
73434;SDS011;61648;52.094;5.054;2022-07-29T06:55:03;1.33;;;1.00;;
73434;SDS011;61648;52.094;5.054;2022-07-29T06:57:29;4.72;;;1.30;;
73434;SDS011;61648;52.094;5.054;2022-07-29T06:59:58;4.20;;;1.27;;
73434;SDS011;61648;52.094;5.054;2022-07-29T07:02:24;3.30;;;1.20;;
73434;SDS011;61648;52.094;5.054;2022-07-29T07:04:50;2.00;;;0.98;;
73434;SDS011;61648;52.094;5.054;2022-07-29T07:07:16;3.33;;;1.38;;
73434;SDS011;61648;52.094;5.054;2022-07-29T07:09:42;3.58;;;1.30;;
73434;SDS011;61648;52.094;5.054;2022-07-29T07:12:08;2.13;;;1.00;;
73434;SDS011;61648;52.094;5.054;2022-07-29T07:14:34;3.78;;;1.20;;
73434;SDS011;61648;52.094;5.054;2022-07-29T07:17:00;2.33;;;1.13;;
73434;SDS011;61648;52.094;5.054;2022-07-29T07:19:28;2.97;;;1.40;;
73434;SDS011;61648;52.094;5.054;2022-07-29T07:21:54;1.88;;;1.05;;
73434;SDS011;61648;52.094;5.054;2022-07-29T07:24:20;4.40;;;1.33;;
73434;SDS011;61648;52.094;5.054;2022-07-29T07:26:46;3.13;;;1.17;;
73434;SDS011;61648;52.094;5.054;2022-07-29T07:29:12;3.38;;;1.10;;
73434;SDS011;61648;52.094;5.054;2022-07-29T07:31:38;3.08;;;1.15;;
73434;SDS011;61648;52.094;5.054;2022-07-29T07:34:04;2.78;;;1.17;;
73434;SDS011;61648;52.094;5.054;2022-07-29T07:36:30;3.40;;;1.20;;
73434;SDS011;61648;52.094;5.054;2022-07-29T07:38:56;2.47;;;1.17;;
73434;SDS011;61648;52.094;5.054;2022-07-29T07:41:22;3.47;;;1.25;;
73434;SDS011;61648;52.094;5.054;2022-07-29T07:43:48;3.67;;;1.13;;
73434;SDS011;61648;52.094;5.054;2022-07-29T07:46:14;3.33;;;1.40;;
73434;SDS011;61648;52.094;5.054;2022-07-29T07:48:40;3.38;;;1.30;;
73434;SDS011;61648;52.094;5.054;2022-07-29T07:51:06;2.00;;;1.30;;
73434;SDS011;61648;52.094;5.054;2022-07-29T07:53:32;3.78;;;1.00;;
73434;SDS011;61648;52.094;5.054;2022-07-29T07:55:58;2.53;;;1.23;;
73434;SDS011;61648;52.094;5.054;2022-07-29T07:58:24;2.55;;;1.20;;
73434;SDS011;61648;52.094;5.054;2022-07-29T08:00:50;5.13;;;1.42;;
73434;SDS011;61648;52.094;5.054;2022-07-29T08:03:16;2.65;;;1.02;;
73434;SDS011;61648;52.094;5.054;2022-07-29T08:05:42;2.10;;;1.10;;
73434;SDS011;61648;52.094;5.054;2022-07-29T08:08:09;2.88;;;1.05;;
73434;SDS011;61648;52.094;5.054;2022-07-29T08:10:35;3.80;;;1.33;;
73434;SDS011;61648;52.094;5.054;2022-07-29T08:13:21;2.40;;;1.00;;
73434;SDS011;61648;52.094;5.054;2022-07-29T08:15:47;3.08;;;1.55;;
73434;SDS011;61648;52.094;5.054;2022-07-29T08:18:22;1.65;;;1.00;;
73434;SDS011;61648;52.094;5.054;2022-07-29T08:20:48;2.05;;;1.30;;
73434;SDS011;61648;52.094;5.054;2022-07-29T08:23:14;2.63;;;1.00;;
73434;SDS011;61648;52.094;5.054;2022-07-29T08:25:40;3.63;;;1.65;;
73434;SDS011;61648;52.094;5.054;2022-07-29T08:28:06;5.13;;;1.10;;
73434;SDS011;61648;52.094;5.054;2022-07-29T08:30:33;3.80;;;1.40;;
73434;SDS011;61648;52.094;5.054;2022-07-29T08:32:59;1.77;;;1.15;;
73434;SDS011;61648;52.094;5.054;2022-07-29T08:35:25;4.10;;;1.20;;
73434;SDS011;61648;52.094;5.054;2022-07-29T08:37:51;4.30;;;1.50;;
73434;SDS011;61648;52.094;5.054;2022-07-29T08:40:18;2.55;;;1.10;;
73434;SDS011;61648;52.094;5.054;2022-07-29T08:42:45;4.18;;;1.38;;
73434;SDS011;61648;52.094;5.054;2022-07-29T08:45:11;2.25;;;1.13;;
73434;SDS011;61648;52.094;5.054;2022-07-29T08:47:40;2.65;;;1.13;;
73434;SDS011;61648;52.094;5.054;2022-07-29T08:50:07;2.95;;;1.20;;
73434;SDS011;61648;52.094;5.054;2022-07-29T08:52:35;2.67;;;1.23;;
73434;SDS011;61648;52.094;5.054;2022-07-29T08:55:01;1.73;;;1.02;;
73434;SDS011;61648;52.094;5.054;2022-07-29T08:57:27;3.50;;;1.20;;
73434;SDS011;61648;52.094;5.054;2022-07-29T08:59:54;5.15;;;1.50;;
73434;SDS011;61648;52.094;5.054;2022-07-29T09:02:21;3.15;;;1.30;;
73434;SDS011;61648;52.094;5.054;2022-07-29T09:04:47;3.97;;;1.30;;
73434;SDS011;61648;52.094;5.054;2022-07-29T09:07:17;3.40;;;1.13;;
73434;SDS011;61648;52.094;5.054;2022-07-29T09:09:43;2.72;;;1.20;;
73434;SDS011;61648;52.094;5.054;2022-07-29T09:12:11;2.90;;;1.10;;
73434;SDS011;61648;52.094;5.054;2022-07-29T09:14:38;3.15;;;1.10;;
73434;SDS011;61648;52.094;5.054;2022-07-29T09:17:04;4.57;;;1.30;;
73434;SDS011;61648;52.094;5.054;2022-07-29T09:19:31;3.40;;;1.42;;
73434;SDS011;61648;52.094;5.054;2022-07-29T09:21:59;2.30;;;1.17;;
73434;SDS011;61648;52.094;5.054;2022-07-29T09:24:27;3.65;;;1.30;;
73434;SDS011;61648;52.094;5.054;2022-07-29T09:26:53;3.42;;;1.20;;
73434;SDS011;61648;52.094;5.054;2022-07-29T09:29:20;3.28;;;1.23;;
73434;SDS011;61648;52.094;5.054;2022-07-29T09:31:47;3.17;;;1.40;;
73434;SDS011;61648;52.094;5.054;2022-07-29T09:34:14;3.20;;;1.30;;
73434;SDS011;61648;52.094;5.054;2022-07-29T09:36:41;3.08;;;1.20;;
73434;SDS011;61648;52.094;5.054;2022-07-29T09:39:07;2.78;;;1.30;;
73434;SDS011;61648;52.094;5.054;2022-07-29T09:41:44;3.25;;;1.20;;
73434;SDS011;61648;52.094;5.054;2022-07-29T09:44:10;4.28;;;1.40;;
73434;SDS011;61648;52.094;5.054;2022-07-29T09:46:36;2.75;;;1.40;;
73434;SDS011;61648;52.094;5.054;2022-07-29T09:49:09;3.97;;;1.40;;
73434;SDS011;61648;52.094;5.054;2022-07-29T09:51:36;3.65;;;0.98;;
73434;SDS011;61648;52.094;5.054;2022-07-29T09:54:20;4.53;;;1.40;;
73434;SDS011;61648;52.094;5.054;2022-07-29T09:56:47;4.15;;;1.30;;
73434;SDS011;61648;52.094;5.054;2022-07-29T09:59:13;3.03;;;1.38;;
73434;SDS011;61648;52.094;5.054;2022-07-29T10:01:39;4.38;;;1.35;;
73434;SDS011;61648;52.094;5.054;2022-07-29T10:04:05;2.58;;;1.20;;
73434;SDS011;61648;52.094;5.054;2022-07-29T10:06:31;2.38;;;1.15;;
73434;SDS011;61648;52.094;5.054;2022-07-29T10:09:07;3.63;;;1.08;;
73434;SDS011;61648;52.094;5.054;2022-07-29T10:11:33;3.42;;;1.52;;
73434;SDS011;61648;52.094;5.054;2022-07-29T10:14:01;2.15;;;1.08;;
73434;SDS011;61648;52.094;5.054;2022-07-29T10:16:27;3.80;;;1.17;;
73434;SDS011;61648;52.094;5.054;2022-07-29T10:18:57;6.05;;;1.38;;
73434;SDS011;61648;52.094;5.054;2022-07-29T10:21:24;2.72;;;1.08;;
73434;SDS011;61648;52.094;5.054;2022-07-29T10:23:50;2.45;;;1.20;;
73434;SDS011;61648;52.094;5.054;2022-07-29T10:26:17;3.60;;;1.10;;
73434;SDS011;61648;52.094;5.054;2022-07-29T10:28:43;3.03;;;1.00;;
73434;SDS011;61648;52.094;5.054;2022-07-29T10:31:18;4.43;;;1.25;;
73434;SDS011;61648;52.094;5.054;2022-07-29T10:33:49;4.10;;;1.50;;
73434;SDS011;61648;52.094;5.054;2022-07-29T10:38:52;2.55;;;1.15;;
73434;SDS011;61648;52.094;5.054;2022-07-29T10:44:05;2.60;;;1.33;;
73434;SDS011;61648;52.094;5.054;2022-07-29T10:46:36;2.63;;;1.10;;
73434;SDS011;61648;52.094;5.054;2022-07-29T10:54:35;3.72;;;1.35;;
73434;SDS011;61648;52.094;5.054;2022-07-29T10:59:45;2.08;;;1.23;;
73434;SDS011;61648;52.094;5.054;2022-07-29T11:07:22;3.65;;;1.27;;
73434;SDS011;61648;52.094;5.054;2022-07-29T11:15:02;3.00;;;1.40;;
73434;SDS011;61648;52.094;5.054;2022-07-29T11:17:30;3.17;;;1.37;;
73434;SDS011;61648;52.094;5.054;2022-07-29T11:20:35;1.83;;;1.08;;
73434;SDS011;61648;52.094;5.054;2022-07-29T11:23:16;2.08;;;0.90;;
73434;SDS011;61648;52.094;5.054;2022-07-29T11:25:43;3.20;;;1.48;;
73434;SDS011;61648;52.094;5.054;2022-07-29T11:28:10;4.13;;;1.42;;
73434;SDS011;61648;52.094;5.054;2022-07-29T11:30:51;3.08;;;1.15;;
73434;SDS011;61648;52.094;5.054;2022-07-29T11:33:27;3.33;;;1.35;;
73434;SDS011;61648;52.094;5.054;2022-07-29T11:36:10;3.63;;;1.27;;
73434;SDS011;61648;52.094;5.054;2022-07-29T11:38:36;2.03;;;1.02;;
73434;SDS011;61648;52.094;5.054;2022-07-29T11:43:54;3.47;;;1.20;;
73434;SDS011;61648;52.094;5.054;2022-07-29T11:49:05;5.25;;;1.30;;
73434;SDS011;61648;52.094;5.054;2022-07-29T11:51:31;3.40;;;1.48;;
73434;SDS011;61648;52.094;5.054;2022-07-29T11:53:57;3.00;;;1.38;;
73434;SDS011;61648;52.094;5.054;2022-07-29T11:56:24;3.55;;;1.23;;
73434;SDS011;61648;52.094;5.054;2022-07-29T11:59:00;3.58;;;1.38;;
73434;SDS011;61648;52.094;5.054;2022-07-29T12:01:26;4.50;;;1.48;;
73434;SDS011;61648;52.094;5.054;2022-07-29T12:04:01;3.20;;;1.17;;
73434;SDS011;61648;52.094;5.054;2022-07-29T12:06:27;3.65;;;1.30;;
73434;SDS011;61648;52.094;5.054;2022-07-29T12:08:53;2.13;;;0.90;;
73434;SDS011;61648;52.094;5.054;2022-07-29T12:11:19;5.88;;;1.60;;
73434;SDS011;61648;52.094;5.054;2022-07-29T12:13:45;3.85;;;1.30;;
73434;SDS011;61648;52.094;5.054;2022-07-29T12:16:11;2.25;;;1.10;;
73434;SDS011;61648;52.094;5.054;2022-07-29T12:18:37;2.15;;;1.05;;
73434;SDS011;61648;52.094;5.054;2022-07-29T12:21:03;3.50;;;1.40;;
73434;SDS011;61648;52.094;5.054;2022-07-29T12:23:32;6.70;;;1.90;;
73434;SDS011;61648;52.094;5.054;2022-07-29T12:25:58;3.60;;;1.30;;
73434;SDS011;61648;52.094;5.054;2022-07-29T12:28:24;2.35;;;1.20;;
73434;SDS011;61648;52.094;5.054;2022-07-29T12:30:50;4.25;;;1.38;;
73434;SDS011;61648;52.094;5.054;2022-07-29T12:35:44;2.90;;;1.52;;
73434;SDS011;61648;52.094;5.054;2022-07-29T12:38:11;2.20;;;1.10;;
73434;SDS011;61648;52.094;5.054;2022-07-29T12:40:37;4.72;;;1.33;;
73434;SDS011;61648;52.094;5.054;2022-07-29T12:43:07;3.88;;;1.63;;
73434;SDS011;61648;52.094;5.054;2022-07-29T12:45:34;3.25;;;1.48;;
73434;SDS011;61648;52.094;5.054;2022-07-29T12:48:00;4.38;;;1.38;;
73434;SDS011;61648;52.094;5.054;2022-07-29T12:50:26;4.50;;;1.45;;
73434;SDS011;61648;52.094;5.054;2022-07-29T12:52:52;5.35;;;1.35;;
73434;SDS011;61648;52.094;5.054;2022-07-29T12:55:38;3.33;;;1.50;;
73434;SDS011;61648;52.094;5.054;2022-07-29T12:58:04;3.50;;;1.27;;
73434;SDS011;61648;52.094;5.054;2022-07-29T13:00:30;1.63;;;1.25;;
73434;SDS011;61648;52.094;5.054;2022-07-29T13:02:56;4.75;;;1.38;;
73434;SDS011;61648;52.094;5.054;2022-07-29T13:05:23;4.32;;;1.55;;
73434;SDS011;61648;52.094;5.054;2022-07-29T13:07:49;3.92;;;1.35;;
73434;SDS011;61648;52.094;5.054;2022-07-29T13:10:16;4.60;;;1.52;;
73434;SDS011;61648;52.094;5.054;2022-07-29T13:15:27;3.92;;;1.73;;
73434;SDS011;61648;52.094;5.054;2022-07-29T13:17:53;2.67;;;1.45;;
73434;SDS011;61648;52.094;5.054;2022-07-29T13:20:22;2.70;;;1.30;;
73434;SDS011;61648;52.094;5.054;2022-07-29T13:22:49;4.00;;;1.70;;
73434;SDS011;61648;52.094;5.054;2022-07-29T13:25:22;4.03;;;1.70;;
73434;SDS011;61648;52.094;5.054;2022-07-29T13:27:49;3.55;;;1.52;;
73434;SDS011;61648;52.094;5.054;2022-07-29T13:30:15;2.55;;;1.33;;
73434;SDS011;61648;52.094;5.054;2022-07-29T13:32:41;2.72;;;1.40;;
73434;SDS011;61648;52.094;5.054;2022-07-29T13:35:07;6.13;;;1.52;;
73434;SDS011;61648;52.094;5.054;2022-07-29T13:37:34;5.05;;;2.10;;
73434;SDS011;61648;52.094;5.054;2022-07-29T13:40:03;9.13;;;2.47;;
73434;SDS011;61648;52.094;5.054;2022-07-29T13:42:29;8.18;;;2.30;;
73434;SDS011;61648;52.094;5.054;2022-07-29T13:44:55;7.85;;;2.00;;
73434;SDS011;61648;52.094;5.054;2022-07-29T13:47:21;7.85;;;2.20;;
73434;SDS011;61648;52.094;5.054;2022-07-29T13:49:48;7.68;;;2.88;;
73434;SDS011;61648;52.094;5.054;2022-07-29T13:52:14;6.32;;;2.13;;
73434;SDS011;61648;52.094;5.054;2022-07-29T13:54:40;6.25;;;1.92;;
73434;SDS011;61648;52.094;5.054;2022-07-29T13:57:06;5.97;;;2.08;;
73434;SDS011;61648;52.094;5.054;2022-07-29T13:59:33;8.65;;;1.98;;
73434;SDS011;61648;52.094;5.054;2022-07-29T14:01:59;6.22;;;2.20;;
73434;SDS011;61648;52.094;5.054;2022-07-29T14:04:25;4.97;;;1.70;;
73434;SDS011;61648;52.094;5.054;2022-07-29T14:06:51;7.32;;;2.10;;
73434;SDS011;61648;52.094;5.054;2022-07-29T14:09:17;5.93;;;1.88;;
73434;SDS011;61648;52.094;5.054;2022-07-29T14:11:43;4.15;;;1.77;;
73434;SDS011;61648;52.094;5.054;2022-07-29T14:14:10;5.72;;;1.70;;
73434;SDS011;61648;52.094;5.054;2022-07-29T14:16:39;6.53;;;1.90;;
73434;SDS011;61648;52.094;5.054;2022-07-29T14:19:05;8.95;;;1.85;;
73434;SDS011;61648;52.094;5.054;2022-07-29T14:21:32;7.03;;;2.00;;
73434;SDS011;61648;52.094;5.054;2022-07-29T14:23:58;10.00;;;2.15;;
73434;SDS011;61648;52.094;5.054;2022-07-29T14:26:24;8.68;;;1.98;;
73434;SDS011;61648;52.094;5.054;2022-07-29T14:28:50;6.80;;;1.92;;
73434;SDS011;61648;52.094;5.054;2022-07-29T14:31:16;6.90;;;1.85;;
73434;SDS011;61648;52.094;5.054;2022-07-29T14:33:42;7.55;;;1.88;;
73434;SDS011;61648;52.094;5.054;2022-07-29T14:36:08;8.40;;;2.15;;
73434;SDS011;61648;52.094;5.054;2022-07-29T14:38:34;9.02;;;2.83;;
73434;SDS011;61648;52.094;5.054;2022-07-29T14:41:00;6.63;;;2.10;;
73434;SDS011;61648;52.094;5.054;2022-07-29T14:43:26;5.38;;;2.13;;
73434;SDS011;61648;52.094;5.054;2022-07-29T14:45:52;7.78;;;1.88;;
73434;SDS011;61648;52.094;5.054;2022-07-29T14:48:18;6.90;;;2.67;;
73434;SDS011;61648;52.094;5.054;2022-07-29T14:50:44;7.15;;;2.00;;
73434;SDS011;61648;52.094;5.054;2022-07-29T14:53:10;8.23;;;2.10;;
73434;SDS011;61648;52.094;5.054;2022-07-29T14:55:38;4.78;;;1.95;;
73434;SDS011;61648;52.094;5.054;2022-07-29T14:58:04;9.50;;;2.30;;
73434;SDS011;61648;52.094;5.054;2022-07-29T15:00:30;7.50;;;2.35;;
73434;SDS011;61648;52.094;5.054;2022-07-29T15:02:58;5.88;;;1.98;;
73434;SDS011;61648;52.094;5.054;2022-07-29T15:05:25;6.18;;;2.67;;
73434;SDS011;61648;52.094;5.054;2022-07-29T15:07:51;8.10;;;2.67;;
73434;SDS011;61648;52.094;5.054;2022-07-29T15:10:17;6.93;;;2.20;;
73434;SDS011;61648;52.094;5.054;2022-07-29T15:12:43;8.50;;;2.20;;
73434;SDS011;61648;52.094;5.054;2022-07-29T15:15:09;14.43;;;2.75;;
73434;SDS011;61648;52.094;5.054;2022-07-29T15:17:35;10.65;;;2.45;;
73434;SDS011;61648;52.094;5.054;2022-07-29T15:20:01;8.18;;;2.42;;
73434;SDS011;61648;52.094;5.054;2022-07-29T15:22:27;7.78;;;2.88;;
73434;SDS011;61648;52.094;5.054;2022-07-29T15:27:22;7.60;;;2.35;;
73434;SDS011;61648;52.094;5.054;2022-07-29T15:29:48;8.45;;;2.38;;
73434;SDS011;61648;52.094;5.054;2022-07-29T15:32:14;11.68;;;2.70;;
73434;SDS011;61648;52.094;5.054;2022-07-29T15:34:40;8.85;;;2.30;;
73434;SDS011;61648;52.094;5.054;2022-07-29T15:37:06;7.10;;;2.45;;
73434;SDS011;61648;52.094;5.054;2022-07-29T15:42:16;8.23;;;2.60;;
73434;SDS011;61648;52.094;5.054;2022-07-29T15:44:42;9.10;;;2.30;;
73434;SDS011;61648;52.094;5.054;2022-07-29T15:47:08;5.68;;;2.42;;
73434;SDS011;61648;52.094;5.054;2022-07-29T15:49:35;6.78;;;2.33;;
73434;SDS011;61648;52.094;5.054;2022-07-29T15:52:03;6.05;;;2.47;;
73434;SDS011;61648;52.094;5.054;2022-07-29T15:54:32;11.15;;;2.70;;
73434;SDS011;61648;52.094;5.054;2022-07-29T15:56:59;9.05;;;2.63;;
73434;SDS011;61648;52.094;5.054;2022-07-29T15:59:28;8.77;;;2.55;;
73434;SDS011;61648;52.094;5.054;2022-07-29T16:01:54;9.77;;;2.47;;
73434;SDS011;61648;52.094;5.054;2022-07-29T16:04:20;13.50;;;3.08;;
73434;SDS011;61648;52.094;5.054;2022-07-29T16:06:47;10.70;;;2.90;;
73434;SDS011;61648;52.094;5.054;2022-07-29T16:09:13;6.88;;;2.25;;
73434;SDS011;61648;52.094;5.054;2022-07-29T16:11:40;8.68;;;2.25;;
73434;SDS011;61648;52.094;5.054;2022-07-29T16:14:06;8.93;;;2.28;;
73434;SDS011;61648;52.094;5.054;2022-07-29T16:16:35;8.80;;;2.40;;
73434;SDS011;61648;52.094;5.054;2022-07-29T16:19:01;7.47;;;2.42;;
73434;SDS011;61648;52.094;5.054;2022-07-29T16:21:27;7.60;;;2.15;;
73434;SDS011;61648;52.094;5.054;2022-07-29T16:23:53;10.88;;;2.35;;
73434;SDS011;61648;52.094;5.054;2022-07-29T16:26:19;9.75;;;2.60;;
73434;SDS011;61648;52.094;5.054;2022-07-29T16:28:45;8.82;;;2.72;;
73434;SDS011;61648;52.094;5.054;2022-07-29T16:31:11;10.45;;;2.78;;
73434;SDS011;61648;52.094;5.054;2022-07-29T16:33:37;7.78;;;2.97;;
73434;SDS011;61648;52.094;5.054;2022-07-29T16:36:03;13.85;;;4.88;;
73434;SDS011;61648;52.094;5.054;2022-07-29T16:38:29;11.20;;;2.67;;
73434;SDS011;61648;52.094;5.054;2022-07-29T16:40:55;13.15;;;3.55;;
73434;SDS011;61648;52.094;5.054;2022-07-29T16:43:21;7.53;;;2.42;;
73434;SDS011;61648;52.094;5.054;2022-07-29T16:45:47;10.02;;;2.60;;
73434;SDS011;61648;52.094;5.054;2022-07-29T16:48:13;13.38;;;3.85;;
73434;SDS011;61648;52.094;5.054;2022-07-29T16:50:40;9.55;;;2.58;;
73434;SDS011;61648;52.094;5.054;2022-07-29T16:53:06;5.78;;;2.70;;
73434;SDS011;61648;52.094;5.054;2022-07-29T16:55:32;7.00;;;2.40;;
73434;SDS011;61648;52.094;5.054;2022-07-29T16:58:02;10.52;;;2.95;;
73434;SDS011;61648;52.094;5.054;2022-07-29T17:00:28;10.45;;;2.30;;
73434;SDS011;61648;52.094;5.054;2022-07-29T17:02:54;11.23;;;2.40;;
73434;SDS011;61648;52.094;5.054;2022-07-29T17:05:20;13.25;;;2.67;;
73434;SDS011;61648;52.094;5.054;2022-07-29T17:07:45;11.02;;;2.40;;
73434;SDS011;61648;52.094;5.054;2022-07-29T17:10:12;8.25;;;2.55;;
73434;SDS011;61648;52.094;5.054;2022-07-29T17:12:38;9.10;;;2.50;;
73434;SDS011;61648;52.094;5.054;2022-07-29T17:15:06;10.15;;;2.90;;
73434;SDS011;61648;52.094;5.054;2022-07-29T17:17:32;8.88;;;2.75;;
73434;SDS011;61648;52.094;5.054;2022-07-29T17:19:58;7.18;;;2.65;;
73434;SDS011;61648;52.094;5.054;2022-07-29T17:22:24;8.82;;;2.50;;
73434;SDS011;61648;52.094;5.054;2022-07-29T17:24:51;7.90;;;2.55;;
73434;SDS011;61648;52.094;5.054;2022-07-29T17:27:17;9.73;;;2.65;;
73434;SDS011;61648;52.094;5.054;2022-07-29T17:29:43;6.30;;;2.10;;
73434;SDS011;61648;52.094;5.054;2022-07-29T17:32:09;10.38;;;3.08;;
73434;SDS011;61648;52.094;5.054;2022-07-29T17:34:36;10.02;;;3.00;;
73434;SDS011;61648;52.094;5.054;2022-07-29T17:37:03;8.60;;;2.67;;
73434;SDS011;61648;52.094;5.054;2022-07-29T17:39:29;10.88;;;2.72;;
73434;SDS011;61648;52.094;5.054;2022-07-29T17:41:55;10.93;;;2.97;;
73434;SDS011;61648;52.094;5.054;2022-07-29T17:44:23;12.63;;;2.65;;
73434;SDS011;61648;52.094;5.054;2022-07-29T17:46:49;6.05;;;2.70;;
73434;SDS011;61648;52.094;5.054;2022-07-29T17:49:15;8.25;;;2.55;;
73434;SDS011;61648;52.094;5.054;2022-07-29T17:51:41;7.65;;;2.50;;
73434;SDS011;61648;52.094;5.054;2022-07-29T17:54:07;10.05;;;2.80;;
73434;SDS011;61648;52.094;5.054;2022-07-29T17:56:33;8.43;;;2.40;;
73434;SDS011;61648;52.094;5.054;2022-07-29T17:58:59;10.20;;;2.47;;
73434;SDS011;61648;52.094;5.054;2022-07-29T18:01:30;7.70;;;2.42;;
73434;SDS011;61648;52.094;5.054;2022-07-29T18:03:56;6.35;;;2.47;;
73434;SDS011;61648;52.094;5.054;2022-07-29T18:06:22;10.88;;;2.53;;
73434;SDS011;61648;52.094;5.054;2022-07-29T18:08:48;7.70;;;2.42;;
73434;SDS011;61648;52.094;5.054;2022-07-29T18:11:14;7.63;;;2.40;;
73434;SDS011;61648;52.094;5.054;2022-07-29T18:13:40;8.38;;;2.50;;
73434;SDS011;61648;52.094;5.054;2022-07-29T18:16:06;5.43;;;2.10;;
73434;SDS011;61648;52.094;5.054;2022-07-29T18:18:33;7.75;;;2.30;;
73434;SDS011;61648;52.094;5.054;2022-07-29T18:20:59;8.75;;;2.20;;
73434;SDS011;61648;52.094;5.054;2022-07-29T18:23:25;6.40;;;2.30;;
73434;SDS011;61648;52.094;5.054;2022-07-29T18:25:51;7.53;;;2.30;;
73434;SDS011;61648;52.094;5.054;2022-07-29T18:28:17;9.38;;;2.13;;
73434;SDS011;61648;52.094;5.054;2022-07-29T18:30:43;7.65;;;2.30;;
73434;SDS011;61648;52.094;5.054;2022-07-29T18:33:10;8.77;;;2.17;;
73434;SDS011;61648;52.094;5.054;2022-07-29T18:35:40;8.00;;;2.30;;
73434;SDS011;61648;52.094;5.054;2022-07-29T18:38:06;5.93;;;2.47;;
73434;SDS011;61648;52.094;5.054;2022-07-29T18:40:32;9.60;;;2.22;;
73434;SDS011;61648;52.094;5.054;2022-07-29T18:43:01;7.72;;;2.28;;
73434;SDS011;61648;52.094;5.054;2022-07-29T18:45:27;9.85;;;2.40;;
73434;SDS011;61648;52.094;5.054;2022-07-29T18:47:53;8.20;;;2.20;;
73434;SDS011;61648;52.094;5.054;2022-07-29T18:50:19;9.65;;;2.30;;
73434;SDS011;61648;52.094;5.054;2022-07-29T18:52:46;11.60;;;2.90;;
73434;SDS011;61648;52.094;5.054;2022-07-29T18:55:12;12.93;;;2.53;;
73434;SDS011;61648;52.094;5.054;2022-07-29T18:57:38;10.10;;;2.58;;
73434;SDS011;61648;52.094;5.054;2022-07-29T19:00:04;6.78;;;2.10;;
73434;SDS011;61648;52.094;5.054;2022-07-29T19:02:31;6.80;;;2.20;;
73434;SDS011;61648;52.094;5.054;2022-07-29T19:04:57;10.95;;;2.50;;
73434;SDS011;61648;52.094;5.054;2022-07-29T19:07:24;12.27;;;2.97;;
73434;SDS011;61648;52.094;5.054;2022-07-29T19:09:50;9.98;;;2.70;;
73434;SDS011;61648;52.094;5.054;2022-07-29T19:12:17;9.73;;;2.53;;
73434;SDS011;61648;52.094;5.054;2022-07-29T19:14:44;8.52;;;2.47;;
73434;SDS011;61648;52.094;5.054;2022-07-29T19:17:10;10.05;;;3.17;;
73434;SDS011;61648;52.094;5.054;2022-07-29T19:19:35;9.10;;;2.72;;
73434;SDS011;61648;52.094;5.054;2022-07-29T19:22:01;11.45;;;3.22;;
73434;SDS011;61648;52.094;5.054;2022-07-29T19:24:27;13.88;;;3.70;;
73434;SDS011;61648;52.094;5.054;2022-07-29T19:26:54;12.93;;;3.30;;
73434;SDS011;61648;52.094;5.054;2022-07-29T19:29:20;19.45;;;4.65;;
73434;SDS011;61648;52.094;5.054;2022-07-29T19:31:48;8.02;;;2.60;;
73434;SDS011;61648;52.094;5.054;2022-07-29T19:34:14;7.90;;;2.40;;
73434;SDS011;61648;52.094;5.054;2022-07-29T19:36:43;10.85;;;3.25;;
73434;SDS011;61648;52.094;5.054;2022-07-29T19:39:08;11.23;;;3.33;;
73434;SDS011;61648;52.094;5.054;2022-07-29T19:41:35;15.52;;;3.40;;
73434;SDS011;61648;52.094;5.054;2022-07-29T19:44:02;10.80;;;3.08;;
73434;SDS011;61648;52.094;5.054;2022-07-29T19:46:27;16.35;;;3.50;;
73434;SDS011;61648;52.094;5.054;2022-07-29T19:48:54;11.95;;;2.85;;
73434;SDS011;61648;52.094;5.054;2022-07-29T19:51:20;18.25;;;3.55;;
73434;SDS011;61648;52.094;5.054;2022-07-29T19:53:47;13.20;;;4.10;;
73434;SDS011;61648;52.094;5.054;2022-07-29T19:56:13;16.45;;;3.20;;
73434;SDS011;61648;52.094;5.054;2022-07-29T19:58:39;12.57;;;3.45;;
73434;SDS011;61648;52.094;5.054;2022-07-29T20:01:05;13.63;;;4.03;;
73434;SDS011;61648;52.094;5.054;2022-07-29T20:03:31;15.13;;;3.80;;
73434;SDS011;61648;52.094;5.054;2022-07-29T20:05:57;10.02;;;3.50;;
73434;SDS011;61648;52.094;5.054;2022-07-29T20:08:23;10.82;;;2.90;;
73434;SDS011;61648;52.094;5.054;2022-07-29T20:10:49;11.10;;;3.38;;